Time;durP1;ratioP1;P1;durP2;ratioP2;P2;SDS_P1;SDS_P2;PMS_P1;PMS_P2;Temp;Humidity;BMP_temperature;BMP_pressure;BME280_temperature;BME280_humidity;BME280_pressure;Samples;Min_cycle;Max_cycle;Signal;HPM_P1;HPM_P2
2022/10/30 00:00:13;;;;;;;49.73;22.87;;;;;;;9.18;84.04;95589.53;5045474;28;20164;-81
2022/10/30 00:02:38;;;;;;;39.43;18.80;;;;;;;9.27;83.65;95591.06;5047975;28;20194;-80
2022/10/30 00:05:04;;;;;;;35.57;17.93;;;;;;;9.34;82.84;95606.94;5041242;28;20237;-80
2022/10/30 00:07:30;;;;;;;45.03;20.17;;;;;;;9.39;82.87;95613.25;5039327;28;20168;-81
2022/10/30 00:09:55;;;;;;;39.43;16.13;;;;;;;9.06;83.49;95583.13;5044597;28;20171;-81
2022/10/30 00:12:20;;;;;;;36.60;18.33;;;;;;;9.20;83.65;95605.13;5045195;28;20168;-81
2022/10/30 00:14:46;;;;;;;36.57;17.27;;;;;;;9.25;83.44;95618.53;5042027;28;20647;-81
2022/10/30 00:17:11;;;;;;;32.60;16.07;;;;;;;9.27;83.22;95619.16;5042076;28;20243;-81
2022/10/30 00:19:36;;;;;;;37.07;17.50;;;;;;;9.28;83.24;95623.41;5045912;28;20188;-81
2022/10/30 00:22:02;;;;;;;39.50;17.63;;;;;;;9.10;83.01;95600.16;5050714;28;20195;-81
2022/10/30 00:24:28;;;;;;;37.10;18.40;;;;;;;9.30;82.63;95626.66;5052801;28;20187;-81
2022/10/30 00:26:54;;;;;;;42.00;17.23;;;;;;;9.28;82.17;95628.66;5053667;28;20612;-82
2022/10/30 00:29:22;;;;;;;42.07;19.10;;;;;;;9.24;83.05;95628.22;5047632;28;20202;-82
2022/10/30 00:31:48;;;;;;;44.60;18.47;;;;;;;9.26;82.70;95628.00;5044557;28;20221;-81
2022/10/30 00:34:13;;;;;;;45.27;19.00;;;;;;;9.15;82.76;95608.31;5039167;28;20175;-81
2022/10/30 00:36:39;;;;;;;35.27;17.53;;;;;;;9.25;82.51;95627.22;5041139;28;20574;-80
2022/10/30 00:39:05;;;;;;;39.40;18.27;;;;;;;8.81;82.13;95556.38;5042041;28;20167;-80
2022/10/30 00:41:30;;;;;;;38.00;18.23;;;;;;;9.23;82.15;95621.34;5036542;28;20247;-81
2022/10/30 00:43:56;;;;;;;50.13;18.90;;;;;;;8.91;82.40;95569.19;5040926;28;20256;-80
2022/10/30 00:46:32;;;;;;;42.07;19.67;;;;;;;9.21;82.23;95612.81;5039202;28;20172;-80
2022/10/30 00:49:07;;;;;;;37.30;19.70;;;;;;;9.18;82.72;95621.06;5044118;28;20198;-81
2022/10/30 00:51:35;;;;;;;25.03;15.63;;;;;;;9.06;83.88;95604.16;5035985;28;20171;-80
2022/10/30 00:54:02;;;;;;;35.37;17.73;;;;;;;8.77;84.00;95549.03;5041263;28;20171;-80
2022/10/30 00:56:28;;;;;;;34.17;17.23;;;;;;;8.71;84.48;95542.69;5038509;28;20175;-80
2022/10/30 00:58:59;;;;;;;36.07;17.47;;;;;;;9.16;84.14;95614.38;5045540;28;20247;-81
2022/10/30 01:01:28;;;;;;;35.57;16.73;;;;;;;8.84;83.85;95570.91;5036325;28;20737;-80
2022/10/30 01:03:56;;;;;;;30.27;17.17;;;;;;;9.06;84.55;95601.53;5032873;28;20180;-80
2022/10/30 01:06:22;;;;;;;30.13;16.03;;;;;;;9.00;84.36;95602.22;5038436;28;20167;-81
2022/10/30 01:08:49;;;;;;;30.57;17.17;;;;;;;9.02;84.05;95600.25;5038300;28;20163;-80
2022/10/30 01:11:15;;;;;;;30.60;15.23;;;;;;;8.91;83.89;95572.63;5043372;28;20653;-80
2022/10/30 01:13:44;;;;;;;32.83;16.33;;;;;;;8.91;83.58;95566.56;5038817;28;20176;-80
2022/10/30 01:16:29;;;;;;;31.87;14.57;;;;;;;9.05;83.80;95584.13;5039200;28;20167;-80
2022/10/30 01:19:13;;;;;;;28.03;15.23;;;;;;;9.09;83.03;95583.56;5044796;28;20194;-80
2022/10/30 01:21:56;;;;;;;24.13;13.77;;;;;;;9.06;82.64;95578.72;5043711;28;20664;-80
2022/10/30 01:24:31;;;;;;;22.33;12.73;;;;;;;9.00;83.16;95574.16;5032744;28;20218;-80
2022/10/30 01:27:16;;;;;;;24.57;14.20;;;;;;;8.98;83.45;95578.00;5032529;28;20158;-80
2022/10/30 01:30:09;;;;;;;29.77;15.03;;;;;;;8.94;83.53;95576.72;5034556;28;20270;-80
2022/10/30 01:32:53;;;;;;;28.27;13.63;;;;;;;8.94;82.80;95579.34;5038829;28;20225;-82
2022/10/30 01:36:03;;;;;;;24.17;13.37;;;;;;;8.88;83.02;95575.63;5045954;28;20179;-81
2022/10/30 01:38:34;;;;;;;19.83;12.47;;;;;;;8.85;82.84;95577.81;5040634;28;20191;-81
2022/10/30 01:41:00;;;;;;;24.13;13.40;;;;;;;8.83;82.90;95564.84;5032460;28;20220;-81
2022/10/30 01:43:25;;;;;;;26.00;12.93;;;;;;;8.46;83.02;95502.00;5032320;28;20609;-82
2022/10/30 01:45:57;;;;;;;23.90;13.83;;;;;;;8.91;82.72;95567.38;5035284;28;20239;-82
2022/10/30 01:48:25;;;;;;;20.77;13.20;;;;;;;8.93;82.73;95568.03;5036676;28;20156;-81
2022/10/30 01:50:50;;;;;;;24.43;13.03;;;;;;;8.88;83.06;95566.94;5038559;28;20319;-82
2022/10/30 01:53:32;;;;;;;28.87;12.93;;;;;;;8.83;83.90;95562.22;5042368;28;20168;-82
2022/10/30 01:56:33;;;;;;;23.83;12.50;;;;;;;8.85;84.23;95569.94;5043097;28;20709;-82
2022/10/30 01:59:21;;;;;;;20.23;12.97;;;;;;;8.87;84.10;95574.00;5047429;28;20163;-82
2022/10/30 02:01:48;;;;;;;17.83;11.60;;;;;;;8.78;83.05;95548.84;5046880;28;20197;-81
2022/10/30 02:04:13;;;;;;;20.13;11.87;;;;;;;8.83;83.39;95556.16;5040527;28;20559;-81
2022/10/30 02:06:39;;;;;;;23.70;12.53;;;;;;;8.67;83.50;95536.19;5043386;28;20168;-81
2022/10/30 02:09:05;;;;;;;22.33;12.40;;;;;;;8.72;83.27;95540.91;5041289;28;20564;-81
2022/10/30 02:11:32;;;;;;;22.40;12.37;;;;;;;8.84;82.58;95563.03;5032132;28;20191;-81
2022/10/30 02:14:01;;;;;;;24.20;12.40;;;;;;;8.72;82.37;95548.78;5032056;28;20713;-81
2022/10/30 02:16:27;;;;;;;18.83;12.10;;;;;;;8.81;82.55;95558.19;5032165;28;20647;-81
2022/10/30 02:18:52;;;;;;;20.27;11.80;;;;;;;8.78;82.41;95556.72;5032208;28;20306;-82
2022/10/30 02:21:18;;;;;;;22.07;11.70;;;;;;;8.80;82.01;95553.94;5031970;28;20268;-81
2022/10/30 02:23:44;;;;;;;18.23;10.43;;;;;;;8.30;82.62;95487.22;5030696;28;20203;-82
2022/10/30 02:26:09;;;;;;;16.40;9.47;;;;;;;8.65;83.29;95557.34;5032478;28;20160;-82
2022/10/30 02:28:35;;;;;;;16.90;9.00;;;;;;;8.51;84.15;95550.31;5036037;28;20167;-82
2022/10/30 02:31:00;;;;;;;17.27;9.50;;;;;;;8.31;84.82;95523.78;5043450;28;20297;-82
2022/10/30 02:33:26;;;;;;;16.97;10.10;;;;;;;8.47;83.92;95551.69;5043243;28;20167;-82
2022/10/30 02:35:52;;;;;;;15.67;10.60;;;;;;;8.47;83.62;95549.06;5037795;28;20176;-82
2022/10/30 02:38:17;;;;;;;18.03;9.97;;;;;;;8.39;83.39;95538.63;5031916;28;20156;-82
2022/10/30 02:40:43;;;;;;;17.53;9.80;;;;;;;8.21;83.31;95520.59;5033945;28;20278;-82
2022/10/30 02:43:08;;;;;;;16.67;9.50;;;;;;;8.42;83.61;95547.94;5043094;28;20195;-82
2022/10/30 02:45:34;;;;;;;13.67;8.50;;;;;;;8.01;83.08;95487.19;5041228;28;20171;-82
2022/10/30 02:47:59;;;;;;;14.90;9.13;;;;;;;8.02;82.94;95489.66;5036150;28;20167;-82
2022/10/30 02:50:26;;;;;;;14.13;9.40;;;;;;;8.38;83.02;95544.88;5035805;28;20176;-82
2022/10/30 02:52:51;;;;;;;12.03;8.77;;;;;;;8.38;83.00;95558.00;5042142;28;20202;-82
2022/10/30 02:55:17;;;;;;;14.77;9.70;;;;;;;8.37;82.92;95561.63;5041867;28;20194;-81
2022/10/30 02:57:43;;;;;;;11.40;8.23;;;;;;;8.37;83.70;95558.16;5035038;28;20242;-82
2022/10/30 03:00:09;;;;;;;20.77;8.87;;;;;;;8.37;83.29;95556.38;5048857;28;20191;-82
2022/10/30 03:02:35;;;;;;;14.23;9.33;;;;;;;8.33;83.30;95550.66;5051072;28;20195;-82
2022/10/30 03:05:00;;;;;;;10.97;8.43;;;;;;;8.40;83.05;95561.22;5055206;28;20179;-82
2022/10/30 03:07:25;;;;;;;11.53;8.57;;;;;;;7.92;82.68;95489.91;5041165;28;20172;-83
2022/10/30 03:09:53;;;;;;;13.17;8.60;;;;;;;8.09;83.25;95527.25;5043350;28;20186;-83
2022/10/30 03:12:18;;;;;;;15.40;8.90;;;;;;;7.92;83.31;95489.09;5035200;28;20542;-82
2022/10/30 03:14:44;;;;;;;18.13;9.07;;;;;;;8.11;83.12;95529.72;5050810;28;20182;-82
2022/10/30 03:17:09;;;;;;;15.63;10.27;;;;;;;8.30;83.34;95579.03;5054859;28;20225;-82
2022/10/30 03:19:35;;;;;;;15.30;10.03;;;;;;;8.27;83.35;95576.75;5054852;28;20238;-82
2022/10/30 03:22:00;;;;;;;14.57;10.03;;;;;;;8.28;83.72;95583.63;5054678;28;20991;-82
2022/10/30 03:24:26;;;;;;;14.90;9.43;;;;;;;7.87;84.00;95523.69;5054679;28;20159;-82
2022/10/30 03:26:51;;;;;;;13.43;8.80;;;;;;;8.02;84.21;95554.38;5053331;28;20182;-82
2022/10/30 03:29:16;;;;;;;13.63;8.73;;;;;;;7.81;85.45;95529.63;5055100;28;20178;-82
2022/10/30 03:31:42;;;;;;;13.70;8.67;;;;;;;8.06;86.03;95563.50;5053539;28;20244;-83
2022/10/30 03:34:08;;;;;;;17.97;9.37;;;;;;;8.07;85.23;95562.50;5054606;28;20167;-82
2022/10/30 03:36:33;;;;;;;14.00;8.50;;;;;;;8.09;84.42;95566.59;5054476;28;20705;-82
2022/10/30 03:38:59;;;;;;;13.37;7.93;;;;;;;8.10;84.40;95576.09;5046084;28;20183;-82
2022/10/30 03:41:24;;;;;;;14.73;9.77;;;;;;;8.03;84.28;95563.88;5043836;28;20656;-82
2022/10/30 03:43:50;;;;;;;12.40;8.73;;;;;;;8.12;83.96;95579.34;5042616;28;20188;-82
2022/10/30 03:46:15;;;;;;;15.87;8.60;;;;;;;7.94;84.08;95535.13;5033260;28;20598;-82
2022/10/30 03:48:41;;;;;;;18.37;10.03;;;;;;;8.15;84.65;95562.44;5054587;28;20163;-82
2022/10/30 03:51:06;;;;;;;12.47;8.63;;;;;;;8.02;83.65;95552.56;5054590;28;20187;-81
2022/10/30 03:53:31;;;;;;;18.07;8.97;;;;;;;7.93;83.85;95546.59;5052573;28;20198;-82
2022/10/30 03:55:59;;;;;;;19.07;10.20;;;;;;;8.09;83.64;95571.03;5042745;28;20168;-82
2022/10/30 03:58:26;;;;;;;27.03;11.07;;;;;;;8.03;83.85;95563.88;5042600;28;20254;-82
2022/10/30 04:00:52;;;;;;;22.17;11.80;;;;;;;8.03;83.85;95553.38;5045746;28;20178;-82
2022/10/30 04:03:17;;;;;;;27.60;15.43;;;;;;;8.06;84.16;95551.22;5038691;28;20233;-81
2022/10/30 04:05:43;;;;;;;24.43;13.80;;;;;;;7.76;84.58;95531.16;5034154;28;20168;-82
2022/10/30 04:08:13;;;;;;;18.73;12.00;;;;;;;7.90;85.35;95548.72;5042553;28;20199;-82
2022/10/30 04:10:46;;;;;;;22.50;12.60;;;;;;;7.89;85.44;95552.34;5042052;28;20198;-82
2022/10/30 04:13:13;;;;;;;21.63;12.70;;;;;;;7.90;85.08;95559.22;5041525;28;20654;-82
2022/10/30 04:15:39;;;;;;;28.03;13.93;;;;;;;7.90;84.98;95553.97;5050741;28;20174;-82
2022/10/30 04:18:05;;;;;;;24.83;13.83;;;;;;;7.89;84.43;95554.97;5053621;28;20190;-82
2022/10/30 04:20:30;;;;;;;24.93;14.37;;;;;;;7.52;85.52;95508.59;5045183;28;20335;-82
2022/10/30 04:23:07;;;;;;;26.50;14.40;;;;;;;7.72;85.17;95542.97;5036760;28;20203;-82
2022/10/30 04:25:34;;;;;;;27.27;13.67;;;;;;;7.48;85.20;95492.41;5045060;28;20163;-82
2022/10/30 04:27:59;;;;;;;27.97;13.37;;;;;;;7.71;84.39;95523.81;5035074;28;20179;-82
2022/10/30 04:30:26;;;;;;;28.63;14.67;;;;;;;7.85;84.47;95541.41;5034175;28;20180;-83
2022/10/30 04:32:55;;;;;;;29.30;16.03;;;;;;;7.91;85.14;95547.75;5033920;28;20152;-82
2022/10/30 04:35:23;;;;;;;23.57;14.23;;;;;;;7.91;85.42;95548.56;5033511;28;20257;-82
2022/10/30 04:38:00;;;;;;;27.83;15.27;;;;;;;7.71;86.09;95539.53;5033625;28;20162;-82
2022/10/30 04:40:28;;;;;;;27.67;15.33;;;;;;;7.80;86.91;95551.59;5033332;28;20227;-82
2022/10/30 04:42:54;;;;;;;27.83;15.60;;;;;;;7.77;87.34;95553.78;5032188;28;20199;-81
2022/10/30 04:45:19;;;;;;;21.10;13.97;;;;;;;7.45;87.11;95508.47;5041663;28;20224;-82
2022/10/30 04:47:45;;;;;;;22.27;14.20;;;;;;;7.48;88.02;95523.03;5041702;28;20221;-83
2022/10/30 04:50:11;;;;;;;21.60;14.13;;;;;;;7.67;88.42;95563.66;5042480;28;20569;-82
2022/10/30 04:52:37;;;;;;;25.63;14.57;;;;;;;7.32;88.59;95491.72;5053056;28;20155;-82
2022/10/30 04:55:03;;;;;;;22.83;13.20;;;;;;;7.44;88.06;95509.47;5053132;28;20155;-82
2022/10/30 04:57:30;;;;;;;23.63;14.67;;;;;;;7.85;87.68;95567.63;5052907;28;20595;-82
2022/10/30 04:59:55;;;;;;;20.77;13.97;;;;;;;7.90;87.10;95560.03;5053288;28;20147;-82
2022/10/30 05:02:21;;;;;;;21.23;13.17;;;;;;;7.96;86.69;95564.56;5053412;28;20548;-82
2022/10/30 05:04:46;;;;;;;23.77;13.27;;;;;;;7.97;85.90;95560.94;5052874;28;20619;-82
2022/10/30 05:07:12;;;;;;;25.47;16.37;;;;;;;7.95;85.93;95568.19;5053197;28;20155;-82
2022/10/30 05:09:38;;;;;;;20.87;14.40;;;;;;;7.94;85.86;95569.19;5052988;28;20175;-82
2022/10/30 05:12:03;;;;;;;26.17;16.07;;;;;;;7.64;85.91;95522.91;5052703;28;20643;-82
2022/10/30 05:14:30;;;;;;;31.97;16.83;;;;;;;7.84;85.73;95568.63;5052839;28;20213;-82
2022/10/30 05:16:56;;;;;;;24.30;16.80;;;;;;;7.81;87.06;95581.25;5044376;28;20171;-82
2022/10/30 05:19:21;;;;;;;25.50;15.80;;;;;;;7.86;86.59;95577.13;5044206;28;20254;-82
2022/10/30 05:21:47;;;;;;;24.67;16.00;;;;;;;7.65;85.85;95540.25;5042414;28;20175;-82
2022/10/30 05:24:12;;;;;;;25.13;16.87;;;;;;;7.90;85.83;95574.94;5015822;28;20290;-82
2022/10/30 05:26:37;;;;;;;33.40;18.17;;;;;;;7.76;85.42;95537.22;5032585;28;20178;-82
2022/10/30 05:29:03;;;;;;;25.60;18.93;;;;;;;7.75;85.29;95532.97;5032920;28;20168;-83
2022/10/30 05:31:28;;;;;;;30.03;18.67;;;;;;;7.97;84.97;95568.81;5032848;28;20168;-82
2022/10/30 05:33:53;;;;;;;31.30;19.43;;;;;;;7.76;85.90;95547.72;5032498;28;20172;-83
2022/10/30 05:36:19;;;;;;;35.73;18.87;;;;;;;7.65;86.58;95526.34;5032649;28;20167;-83
2022/10/30 05:38:45;;;;;;;34.37;17.63;;;;;;;7.57;85.99;95501.84;5031177;28;20654;-84
2022/10/30 05:41:11;;;;;;;28.67;19.77;;;;;;;8.13;86.79;95580.97;5032510;28;20227;-84
2022/10/30 05:43:36;;;;;;;32.97;20.83;;;;;;;8.04;86.00;95555.84;5032722;28;20659;-84
2022/10/30 05:46:02;;;;;;;37.10;23.17;;;;;;;8.06;85.81;95545.97;5032313;28;20599;-84
2022/10/30 05:48:27;;;;;;;41.30;22.70;;;;;;;8.08;85.07;95535.31;5032466;28;20159;-84
2022/10/30 05:50:55;;;;;;;35.57;21.57;;;;;;;8.41;86.10;95585.66;5032170;28;20531;-84
2022/10/30 05:53:21;;;;;;;34.60;22.33;;;;;;;8.11;86.55;95514.78;5032514;28;20654;-84
2022/10/30 05:55:47;;;;;;;38.30;22.43;;;;;;;8.15;86.90;95516.06;5032337;28;20642;-84
2022/10/30 05:58:12;;;;;;;39.73;22.27;;;;;;;8.12;86.53;95494.63;5032631;28;20302;-84
2022/10/30 06:00:39;;;;;;;35.83;21.83;;;;;;;8.82;86.00;95576.34;5031154;28;20168;-84
2022/10/30 06:03:06;;;;;;;42.17;22.30;;;;;;;8.46;85.93;95505.44;5032547;28;20180;-84
2022/10/30 06:05:35;;;;;;;31.20;16.87;;;;;;;9.03;86.37;95580.88;5042248;28;20171;-84
2022/10/30 06:08:02;;;;;;;29.97;20.13;;;;;;;9.16;86.48;95569.72;5053871;28;20203;-83
2022/10/30 06:10:28;;;;;;;30.17;18.50;;;;;;;8.76;86.24;95490.47;5047872;28;20171;-84
2022/10/30 06:12:55;;;;;;;38.70;20.83;;;;;;;9.14;86.50;95530.50;5043386;28;20658;-84
2022/10/30 06:15:21;;;;;;;31.60;21.20;;;;;;;9.16;86.10;95517.19;5039990;28;20171;-84
2022/10/30 06:17:47;;;;;;;31.90;19.93;;;;;;;9.18;86.01;95510.72;5052277;28;20217;-84
2022/10/30 06:20:13;;;;;;;37.07;22.77;;;;;;;9.38;85.87;95521.47;5051169;28;20641;-85
2022/10/30 06:22:39;;;;;;;30.23;20.13;;;;;;;9.82;85.28;95571.22;5052016;28;20191;-84
2022/10/30 06:25:05;;;;;;;43.67;24.33;;;;;;;9.66;85.29;95535.50;5052634;28;20166;-84
2022/10/30 06:27:33;;;;;;;41.17;23.10;;;;;;;10.02;85.53;95566.97;5052080;28;20178;-85
2022/10/30 06:29:58;;;;;;;39.33;18.47;;;;;;;9.79;84.91;95521.63;5053163;28;20634;-84
2022/10/30 06:32:24;;;;;;;38.60;21.10;;;;;;;9.80;84.59;95508.31;5050840;28;20254;-84
2022/10/30 06:34:49;;;;;;;24.93;13.97;;;;;;;10.17;84.27;95545.84;5052902;28;20147;-84
2022/10/30 06:37:16;;;;;;;21.73;13.47;;;;;;;10.16;83.08;95542.38;5056100;28;20684;-85
2022/10/30 06:39:41;;;;;;;24.23;14.13;;;;;;;10.06;83.51;95505.06;5056276;28;20168;-85
2022/10/30 06:42:07;;;;;;;18.07;11.60;;;;;;;10.63;82.62;95587.50;5054444;28;20225;-85
2022/10/30 06:44:32;;;;;;;20.77;12.87;;;;;;;10.37;82.38;95538.94;5055943;28;20160;-85
2022/10/30 06:46:57;;;;;;;21.20;12.23;;;;;;;10.42;81.64;95518.09;5056055;28;20167;-85
2022/10/30 06:49:23;;;;;;;17.97;11.60;;;;;;;10.56;81.26;95526.88;5055786;28;20220;-84
2022/10/30 06:51:49;;;;;;;22.37;11.73;;;;;;;11.11;81.53;95607.63;5055668;28;20156;-83
2022/10/30 06:54:15;;;;;;;18.80;11.40;;;;;;;11.22;81.22;95608.88;5054602;28;20171;-84
2022/10/30 06:56:41;;;;;;;17.83;10.00;;;;;;;10.79;80.96;95514.25;5044501;28;20182;-84
2022/10/30 06:59:07;;;;;;;17.87;9.10;;;;;;;11.51;80.38;95598.03;5044548;28;20179;-86
2022/10/30 07:01:32;;;;;;;12.80;9.17;;;;;;;11.13;79.80;95508.13;5039228;28;20552;-87
2022/10/30 07:03:58;;;;;;;17.10;8.53;;;;;;;11.36;78.28;95513.03;5049798;28;20199;-85
2022/10/30 07:06:23;;;;;;;15.43;9.33;;;;;;;11.80;78.00;95565.28;5050181;28;20371;-87
2022/10/30 07:08:49;;;;;;;14.13;9.70;;;;;;;12.24;77.82;95599.03;5049090;28;20175;-87
2022/10/30 07:11:14;;;;;;;15.03;9.77;;;;;;;12.47;76.81;95606.53;5054965;28;20991;-87
2022/10/30 07:13:40;;;;;;;14.80;9.10;;;;;;;12.65;76.23;95604.09;5053993;28;20159;-85
2022/10/30 07:16:05;;;;;;;19.20;9.47;;;;;;;12.35;74.64;95513.13;5055608;28;20159;-89
2022/10/30 07:18:31;;;;;;;19.03;10.07;;;;;;;12.71;74.43;95539.84;5053833;28;20628;-85
2022/10/30 07:20:56;;;;;;;16.27;10.10;;;;;;;13.23;73.83;95584.91;5055232;28;20162;-85
2022/10/30 07:23:22;;;;;;;15.90;10.00;;;;;;;13.52;72.44;95584.34;5055708;28;20274;-87
2022/10/30 07:25:47;;;;;;;27.83;9.80;;;;;;;13.50;71.24;95533.50;5036941;28;20642;-87
2022/10/30 07:28:13;;;;;;;19.03;10.20;;;;;;;13.87;71.98;95560.97;5054669;28;20194;-86
2022/10/30 07:30:39;;;;;;;14.67;8.50;;;;;;;13.84;72.04;95529.63;5054733;28;20175;-87
2022/10/30 07:33:06;;;;;;;13.30;9.53;;;;;;;14.33;71.69;95579.19;5036605;28;20178;-84
2022/10/30 07:35:34;;;;;;;17.70;10.50;;;;;;;14.49;71.06;95580.50;5053234;28;20572;-83
2022/10/30 07:38:11;;;;;;;15.30;9.97;;;;;;;14.76;70.32;95568.63;5035956;28;20201;-84
2022/10/30 07:40:37;;;;;;;13.55;9.85;;;;;;;15.16;68.28;95569.00;5054013;28;20217;-84
2022/10/30 07:43:04;;;;;;;15.43;9.97;;;;;;;15.03;66.10;95529.41;5053661;28;20183;-83
2022/10/30 07:45:30;;;;;;;14.38;10.18;;;;;;;15.58;66.11;95575.25;5053333;28;20185;-84
2022/10/30 07:47:56;;;;;;;16.67;10.75;;;;;;;15.55;66.46;95540.41;5053761;28;20179;-84
2022/10/30 07:50:21;;;;;;;16.35;9.85;;;;;;;16.01;63.75;95575.09;5049573;28;20565;-83
2022/10/30 07:52:47;;;;;;;14.05;9.80;;;;;;;15.94;63.99;95539.03;5046665;28;20603;-84
2022/10/30 07:55:13;;;;;;;13.20;9.70;;;;;;;16.19;65.40;95571.56;5043852;28;20176;-83
2022/10/30 07:57:40;;;;;;;12.25;9.55;;;;;;;16.21;63.10;95564.16;5039869;28;20733;-84
2022/10/30 08:00:08;;;;;;;17.23;9.98;;;;;;;16.29;63.95;95563.84;5053644;28;20253;-84
2022/10/30 08:02:34;;;;;;;14.77;9.63;;;;;;;16.49;64.05;95542.25;5052926;28;20194;-84
2022/10/30 08:04:59;;;;;;;13.95;9.20;;;;;;;16.88;62.78;95554.06;5053326;28;20285;-83
2022/10/30 08:07:36;;;;;;;20.13;9.43;;;;;;;17.04;60.58;95541.94;5043649;28;20655;-83
2022/10/30 08:10:02;;;;;;;19.40;9.98;;;;;;;17.19;59.84;95542.25;5042481;28;20200;-83
2022/10/30 08:12:27;;;;;;;17.08;10.40;;;;;;;17.15;59.45;95498.50;5044090;28;20243;-84
2022/10/30 08:14:53;;;;;;;17.90;12.25;;;;;;;17.10;59.95;95504.53;5040846;28;20179;-84
2022/10/30 08:17:19;;;;;;;17.17;10.43;;;;;;;17.58;59.45;95546.75;5042422;28;20202;-84
2022/10/30 08:19:45;;;;;;;16.60;9.70;;;;;;;17.60;58.29;95490.59;5040978;28;20184;-84
2022/10/30 08:22:10;;;;;;;14.77;9.48;;;;;;;18.08;57.10;95540.75;5041140;28;20175;-83
2022/10/30 08:24:36;;;;;;;24.58;10.05;;;;;;;17.85;57.75;95540.88;5044061;28;20678;-83
2022/10/30 08:27:03;;;;;;;13.23;8.95;;;;;;;17.50;59.57;95469.09;5035590;28;20234;-84
2022/10/30 08:29:28;;;;;;;14.38;8.48;;;;;;;18.06;57.74;95516.22;5035711;28;20180;-84
2022/10/30 08:31:54;;;;;;;14.90;8.68;;;;;;;18.41;57.53;95540.00;5032388;28;20710;-84
2022/10/30 08:34:19;;;;;;;18.77;8.95;;;;;;;18.43;57.82;95487.19;5051493;28;20190;-85
2022/10/30 08:36:50;;;;;;;16.67;9.13;;;;;;;18.74;57.66;95513.31;5040247;28;20603;-86
2022/10/30 08:39:17;;;;;;;12.23;7.65;;;;;;;19.08;55.89;95550.59;5040913;28;20254;-82
2022/10/30 08:41:42;;;;;;;12.00;7.97;;;;;;;19.24;55.64;95539.06;5043037;28;20334;-80
2022/10/30 08:44:08;;;;;;;16.65;7.97;;;;;;;19.01;54.74;95508.09;5045643;28;20226;-81
2022/10/30 08:46:33;;;;;;;13.60;7.93;;;;;;;19.34;55.11;95541.88;5043950;28;20171;-81
2022/10/30 08:48:59;;;;;;;20.98;9.75;;;;;;;19.48;53.56;95547.66;5037035;28;20171;-81
2022/10/30 08:51:24;;;;;;;14.80;8.35;;;;;;;19.41;54.79;95534.47;5033028;28;20627;-81
2022/10/30 08:53:50;;;;;;;12.32;7.90;;;;;;;19.34;55.01;95504.47;5031798;28;20562;-82
2022/10/30 08:56:16;;;;;;;12.50;8.68;;;;;;;19.71;53.02;95531.38;5033185;28;20191;-82
2022/10/30 08:58:41;;;;;;;13.32;8.32;;;;;;;19.89;53.56;95520.31;5032240;28;20560;-83
2022/10/30 09:01:07;;;;;;;13.23;8.18;;;;;;;20.07;53.42;95508.47;5032717;28;20258;-84
2022/10/30 09:03:32;;;;;;;11.57;7.75;;;;;;;20.04;51.67;95468.88;5033446;28;20222;-86
2022/10/30 09:05:59;;;;;;;14.73;8.10;;;;;;;20.42;52.14;95520.53;5032435;28;20172;-83
2022/10/30 09:08:24;;;;;;;10.95;8.13;;;;;;;20.44;52.10;95524.59;5034668;28;20210;-84
2022/10/30 09:10:54;;;;;;;12.65;8.23;;;;;;;19.92;51.39;95487.75;5042460;28;20210;-85
2022/10/30 09:13:20;;;;;;;12.48;7.90;;;;;;;19.72;53.30;95508.13;5041393;28;20647;-80
2022/10/30 09:15:45;;;;;;;10.80;7.40;;;;;;;19.61;54.43;95512.56;5034788;28;20259;-81
2022/10/30 09:18:11;;;;;;;12.68;7.68;;;;;;;19.71;54.23;95485.97;5035555;28;20241;-81
2022/10/30 09:20:37;;;;;;;10.20;6.85;;;;;;;19.91;52.88;95486.13;5044123;28;20586;-83
2022/10/30 09:23:02;;;;;;;13.05;7.95;;;;;;;19.63;52.82;95456.22;5041900;28;20241;-80
2022/10/30 09:25:28;;;;;;;13.07;8.05;;;;;;;19.83;52.98;95480.44;5044245;28;20183;-83
2022/10/30 09:27:53;;;;;;;12.25;8.30;;;;;;;19.92;53.59;95482.41;5040435;28;20179;-81
2022/10/30 09:30:19;;;;;;;25.52;9.35;;;;;;;19.78;52.62;95465.19;5041846;28;20191;-81
2022/10/30 09:32:44;;;;;;;14.30;8.10;;;;;;;20.16;52.51;95508.78;5017044;28;20182;-82
2022/10/30 09:35:10;;;;;;;14.13;8.25;;;;;;;19.65;52.75;95443.38;5031150;28;20551;-82
2022/10/30 09:37:36;;;;;;;16.48;7.88;;;;;;;20.02;53.19;95504.94;5032278;28;20167;-82
2022/10/30 09:40:03;;;;;;;13.52;7.25;;;;;;;19.51;53.16;95427.78;5032196;28;20175;-83
2022/10/30 09:42:37;;;;;;;12.95;7.60;;;;;;;19.92;54.01;95482.41;5030529;28;20238;-83
2022/10/30 09:45:10;;;;;;;14.05;8.32;;;;;;;19.63;53.62;95453.53;5032121;28;20250;-84
2022/10/30 09:47:54;;;;;;;14.60;7.88;;;;;;;19.74;54.40;95479.28;5026812;28;20540;-84
2022/10/30 09:50:45;;;;;;;13.20;7.78;;;;;;;19.84;54.41;95477.53;5040593;28;20183;-84
2022/10/30 09:53:13;;;;;;;11.95;7.75;;;;;;;19.94;54.39;95472.28;5041323;28;20217;-84
2022/10/30 09:56:08;;;;;;;13.57;7.80;;;;;;;20.02;54.13;95470.19;5032798;28;20172;-84
2022/10/30 09:59:00;;;;;;;10.35;7.07;;;;;;;20.03;53.80;95461.13;5014772;28;20225;-84
2022/10/30 10:01:38;;;;;;;14.57;7.93;;;;;;;20.00;54.88;95464.28;5014011;28;20544;-83
2022/10/30 10:04:26;;;;;;;18.80;8.10;;;;;;;20.05;55.04;95459.00;5032059;28;20658;-84
2022/10/30 10:06:56;;;;;;;12.73;8.35;;;;;;;20.00;54.75;95446.38;5031804;28;20210;-84
2022/10/30 10:09:25;;;;;;;13.27;7.85;;;;;;;19.97;54.35;95438.91;5032103;28;20165;-84
2022/10/30 10:11:57;;;;;;;12.60;6.53;;;;;;;19.86;54.32;95421.97;5036065;28;20160;-84
2022/10/30 10:14:34;;;;;;;16.35;7.35;;;;;;;19.98;55.06;95424.44;5035672;28;20156;-83
2022/10/30 10:17:04;;;;;;;14.98;5.70;;;;;;;20.16;54.44;95428.59;5043629;28;20194;-84
2022/10/30 10:19:37;;;;;;;7.95;4.82;;;;;;;20.13;53.99;95424.59;5052732;28;20175;-80
2022/10/30 10:22:18;;;;;;;11.68;5.45;;;;;;;19.92;55.08;95394.19;5047466;28;20167;-81
2022/10/30 10:24:46;;;;;;;6.07;4.18;;;;;;;19.92;54.48;95388.84;5045447;28;20305;-80
2022/10/30 10:27:20;;;;;;;7.00;4.28;;;;;;;19.99;54.63;95399.31;5055657;28;20178;-83
2022/10/30 10:30:02;;;;;;;11.68;3.63;;;;;;;19.95;53.98;95379.53;5055513;28;20180;-85
2022/10/30 10:32:27;;;;;;;6.80;3.40;;;;;;;20.17;53.86;95412.28;5048793;28;20179;-85
2022/10/30 10:34:56;;;;;;;8.23;4.18;;;;;;;20.18;53.62;95403.22;5055363;28;20171;-84
2022/10/30 10:37:42;;;;;;;10.27;3.80;;;;;;;20.00;53.27;95374.22;5053070;28;20553;-85
2022/10/30 10:40:11;;;;;;;9.43;4.13;;;;;;;20.20;53.93;95398.41;5050163;28;20179;-85
2022/10/30 10:43:09;;;;;;;7.57;4.13;;;;;;;20.24;53.74;95401.38;5053361;28;20257;-84
2022/10/30 10:45:40;;;;;;;6.57;3.10;;;;;;;20.23;52.50;95394.44;5051379;28;20216;-85
2022/10/30 10:48:14;;;;;;;7.97;3.53;;;;;;;20.20;52.96;95389.59;5049891;28;20172;-85
2022/10/30 10:50:47;;;;;;;9.70;4.63;;;;;;;20.19;53.34;95396.00;5043892;28;20179;-85
2022/10/30 10:53:24;;;;;;;8.00;4.35;;;;;;;20.17;53.13;95371.38;5039605;28;20533;-85
2022/10/30 10:55:52;;;;;;;5.80;3.65;;;;;;;19.83;52.83;95320.09;5039934;28;20250;-85
2022/10/30 10:58:24;;;;;;;6.65;3.75;;;;;;;20.17;53.59;95374.84;5053251;28;20178;-85
2022/10/30 11:00:52;;;;;;;6.35;3.47;;;;;;;20.18;53.16;95376.47;5039426;28;20182;-85
2022/10/30 11:03:24;;;;;;;11.65;3.95;;;;;;;19.78;53.19;95310.19;5037978;28;20359;-85
2022/10/30 11:05:56;;;;;;;6.55;4.13;;;;;;;20.21;53.48;95369.81;5034552;28;20175;-85
2022/10/30 11:08:26;;;;;;;5.68;3.60;;;;;;;20.26;52.43;95367.16;5042651;28;20178;-85
2022/10/30 11:10:59;;;;;;;8.30;4.07;;;;;;;20.11;52.16;95324.31;5034527;28;20207;-85
2022/10/30 11:13:29;;;;;;;9.88;3.42;;;;;;;20.30;52.94;95350.34;5050864;28;20190;-85
2022/10/30 11:16:03;;;;;;;13.05;6.70;;;;;;;20.33;52.36;95349.81;5050994;28;20588;-85
2022/10/30 11:18:29;;;;;;;8.73;3.85;;;;;;;20.35;52.35;95341.56;5038520;28;20579;-83
2022/10/30 11:21:10;;;;;;;5.85;3.42;;;;;;;20.40;51.50;95343.47;5031585;28;20657;-84
2022/10/30 11:23:40;;;;;;;14.88;4.35;;;;;;;20.39;51.39;95340.00;5040125;28;20671;-82
2022/10/30 11:26:21;;;;;;;8.60;4.05;;;;;;;20.42;50.84;95342.13;5033171;28;20179;-83
2022/10/30 11:29:11;;;;;;;7.60;3.67;;;;;;;20.42;51.87;95328.75;5032622;28;20538;-83
2022/10/30 11:31:44;;;;;;;8.40;3.88;;;;;;;20.47;52.14;95326.13;5047025;28;20170;-81